Terminal Aerodrome Forecast
Issued by NWS

Current Version | Previous Version | Text Only | Print | Product List | Glossary Off
Versions: 1 2 3 4 5 6 7 8 9 10 11 12

071
FTUS44 KSJT 281123
TAFBBD
TAF
KBBD 281123Z 2812/2912 15011KT P6SM OVC015
     FM281800 15014KT P6SM SCT050 BKN250
     FM290600 15012KT P6SM VCTS BKN030CB
     FM291000 21010KT P6SM BKN020
      AMD NOT SKED=

USA.gov is the U.S. government's official web portal to all federal, state and local government web resources and services.